Pearl Beach, Michigan
Current Conditions -  °F | °C
As of 8:58 PM on Monday 24 Nov 2014 (Local Time) from KMTC Reporting Station
Overcast Overcast  
Wind Chill: 27°   Ceiling: 2600
Heat Index: 38°   Visibility: 10mi
Dew Point: 29°   Wind: 23mph
Humidity: 72%   Direction: 230°SW
Pressure: 29.57"   Gusts: 32mph
Location:  42.6418°N, 82.5677°W
Report Text: KMTC 250158Z AUTO 23020G28KT 10SM OVC026 03/M01 A2957 RMK AO2 PK WND 24037/05 UPB0101E0102 SLP019 P0000 T00321014 21034
Loading
Personal Weather Stations






























Interactive Weather Map New forecast layout! Learn more

10-Day Weather Forecast

Advertisements
Track Severe Weather on mobile